• Join FlightAware (Why Join?)
  • Login
  • US Flag 
02:52PM EST


 

Airport Tracker/Info


-or-


 

Live Flight TrackerFlight Track Log ✈ ERR880 ✈ 31-Dec-2013 ✈ PANC - PAHO / HOM

Flight Track Log - Related Links

Times and Time Zones

All times are in EST time to prevent confusion due to time zone crossing. See the ERR880 flight status page for this flight to view local times or setup timezone preferences in your user account.

Time Position Orientation Groundspeed Altitude Reporting Facility
EST Latitude Longitude Course Direction KTS MPH feet Rate Location/Type
10:19PM 60.8428 -150.3320 208° Southwest  Level Estimated
10:20PM 60.7875 -150.3869 206° Southwest  Level Estimated
10:20PM 60.9333 -150.1833 201° Southwest 200 230 11,700  Level Anchorage Center
10:21PM 60.7318 -150.4400 205° Southwest  Level FlightAware Approximate
10:21PM 60.9000 -150.2333 216° Southwest 190 219 12,000  Level Anchorage Center
10:22PM 60.6765 -150.4947 206° Southwest  Level Estimated
10:22PM 60.8500 -150.3000 213° Southwest 220 253 12,000  Level Anchorage Center
10:23PM 60.6210 -150.5485 205° Southwest  Level FlightAware Approximate
10:23PM 60.8000 -150.3833 219° Southwest 220 253 12,000  Level Anchorage Center
10:24PM 60.5655 -150.6021 205° Southwest  Level FlightAware Approximate
10:24PM 60.7500 -150.4500 213° Southwest 220 253 12,000  Level Anchorage Center
10:25PM 60.5129 -150.6435 201° Southwest  Level FlightAware Approximate
10:25PM 60.6833 -150.5333 211° Southwest 230 265 12,000  Level Anchorage Center
10:26PM 60.6333 -150.6000 213° Southwest 230 265 12,000  Level Anchorage Center
10:27PM 60.5833 -150.6833 219° Southwest 230 265 12,000  Level Anchorage Center
10:28PM 60.5333 -150.7667 219° Southwest 230 265 12,000  Level Anchorage Center
10:29PM 60.4833 -150.8333 213° Southwest 220 253 12,100  Climbing Anchorage Center
10:30PM 60.4333 -150.9167 219° Southwest 220 253 12,100  Level Anchorage Center
10:31PM 60.3667 -150.9833 206° Southwest 230 265 12,100  Level Anchorage Center
10:32PM 60.3167 -151.0667 220° Southwest 240 276 12,100  Level Anchorage Center
10:33PM 60.2667 -151.1500 220° Southwest 240 276 12,100  Level Anchorage Center
10:34PM 60.2167 -151.2167 214° Southwest 230 265 12,100  Level Anchorage Center
10:35PM 60.1500 -151.2833 206° Southwest 240 276 12,100 -60 Level Anchorage Center
10:36PM 60.1000 -151.3833 225° Southwest 220 253 12,000 -60 Descending Anchorage Center
10:37PM 60.0333 -151.4500 207° Southwest 230 265 12,000  Level Anchorage Center
10:38PM 59.9833 -151.5333 220° Southwest 230 265 12,000  Level Anchorage Center
10:39PM 59.9333 -151.6000 214° Southwest 240 276 12,000  Level Anchorage Center
10:40PM 59.8833 -151.6833 220° Southwest 230 265 12,000 -600 Level Anchorage Center
10:41PM 59.8333 -151.7500 214° Southwest 240 276 10,800 -1,380 Descending Anchorage Center
10:42PM 59.7667 -151.8333 212° Southwest 220 253 9,300 -1,500 Descending Anchorage Center
10:43PM 59.7333 -151.8833 217° Southwest 190 219 7,800 -1,500 Descending Anchorage Center
10:44PM 59.6833 -151.9500 214° Southwest 180 207 6,300 -1,500 Descending Anchorage Center
10:45PM 59.6500 -152.0000 217° Southwest 180 207 4,800 -1,440 Descending Anchorage Center
10:46PM 59.6000 -152.0500 207° Southwest 170 196 3,400 -720 Descending Anchorage Center
10:47PM 59.5667 -152.0000 143° Southeast 160 184 3,400  Level Anchorage Center
10:48PM 59.5333 -151.9500 143° Southeast 150 173 3,400  Level Anchorage Center
10:49PM 59.5000 -151.9167 153° Southeast 140 161 3,400 -420 Level Anchorage Center
10:50PM 59.5000 -151.8500 90° East 150 173 2,600 -720 Descending Anchorage Center
10:51PM 59.5167 -151.7833 64° Northeast 110 127 2,000 -300 Descending Anchorage Center
10:52PM 59.5500 -151.7333 37° Northeast 130 150 2,000  Level Anchorage Center
10:53PM 59.5667 -151.6500 68° East 180 207 2,000  Level Anchorage Center